Time;durP1;ratioP1;P1;durP2;ratioP2;P2;SDS_P1;SDS_P2;PMS_P1;PMS_P2;Temp;Humidity;BMP_temperature;BMP_pressure;BME280_temperature;BME280_humidity;BME280_pressure;Samples;Min_cycle;Max_cycle;Signal;HPM_P1;HPM_P2
2022/07/20 00:00:24;;;;;;;;;;;28.70;92.60;;;;;;5085168;28;19916;-53
2022/07/20 00:02:50;;;;;;;;;;;28.70;92.60;;;;;;5084196;28;19951;-55
2022/07/20 00:05:16;;;;;;;;;;;28.60;92.70;;;;;;5078455;28;19917;-53
2022/07/20 00:07:42;;;;;;;;;;;28.60;92.90;;;;;;5080614;28;20120;-52
2022/07/20 00:12:53;;;;;;;;;;;28.60;93.30;;;;;;5064510;28;19987;-54
2022/07/20 00:15:20;;;;;;;;;;;28.60;93.40;;;;;;5082111;28;20216;-57
2022/07/20 00:17:46;;;;;;;;;;;28.60;93.10;;;;;;5084601;28;19912;-56
2022/07/20 00:20:12;;;;;;;;;;;28.50;92.90;;;;;;5065680;28;20089;-54
2022/07/20 00:22:38;;;;;;;;;;;28.40;92.70;;;;;;5077287;28;19919;-55
2022/07/20 00:25:04;;;;;;;;;;;28.40;92.70;;;;;;5068440;28;19905;-54
2022/07/20 00:27:31;;;;;;;;;;;28.40;92.80;;;;;;5064147;28;19912;-52
2022/07/20 00:29:57;;;;;;;;;;;28.40;92.80;;;;;;5064284;28;20196;-55
2022/07/20 00:32:23;;;;;;;;;;;28.40;92.80;;;;;;5064381;28;19913;-52
2022/07/20 00:34:49;;;;;;;;;;;28.40;92.90;;;;;;5064056;28;20124;-56
2022/07/20 00:37:15;;;;;;;;;;;28.40;93.00;;;;;;5064116;28;20237;-58
2022/07/20 00:39:41;;;;;;;;;;;28.30;93.00;;;;;;5072149;28;19916;-52
2022/07/20 00:42:07;;;;;;;;;;;28.30;93.00;;;;;;5070203;28;19929;-53
2022/07/20 00:44:33;;;;;;;;;;;28.30;93.10;;;;;;5063971;28;20188;-53
2022/07/20 00:46:59;;;;;;;;;;;28.30;93.20;;;;;;5063995;28;19919;-58
2022/07/20 00:49:26;;;;;;;;;;;28.30;93.30;;;;;;5063982;28;20070;-52
2022/07/20 00:51:52;;;;;;;;;;;28.20;93.20;;;;;;5063707;28;19948;-55
2022/07/20 00:54:18;;;;;;;;;;;28.20;93.30;;;;;;5063825;28;19905;-53
2022/07/20 00:56:45;;;;;;;;;;;28.20;93.40;;;;;;5063921;28;19904;-52
2022/07/20 00:59:11;;;;;;;;;;;28.20;93.40;;;;;;5063425;28;19912;-53
2022/07/20 01:01:39;;;;;;;;;;;28.20;93.40;;;;;;5063520;28;20112;-53
2022/07/20 01:04:05;;;;;;;;;;;28.30;93.50;;;;;;5063680;28;20181;-50
2022/07/20 01:06:31;;;;;;;;;;;28.30;93.50;;;;;;5063305;28;19946;-55
2022/07/20 01:08:57;;;;;;;;;;;28.20;93.50;;;;;;5063444;28;19909;-54
2022/07/20 01:11:24;;;;;;;;;;;28.20;93.40;;;;;;5063492;28;19912;-52
2022/07/20 01:13:50;;;;;;;;;;;28.20;93.40;;;;;;5063078;28;19909;-52
2022/07/20 01:16:16;;;;;;;;;;;28.20;93.40;;;;;;5063649;28;19908;-52
2022/07/20 01:18:43;;;;;;;;;;;28.20;93.40;;;;;;5064250;28;19908;-52
2022/07/20 01:21:10;;;;;;;;;;;28.20;93.40;;;;;;5063315;28;19931;-53
2022/07/20 01:23:36;;;;;;;;;;;28.10;93.30;;;;;;5065733;28;19905;-52
2022/07/20 01:26:03;;;;;;;;;;;28.10;93.10;;;;;;5072431;28;19905;-55
2022/07/20 01:28:30;;;;;;;;;;;28.10;93.10;;;;;;5063444;28;19904;-56
2022/07/20 01:30:56;;;;;;;;;;;28.00;93.00;;;;;;5063645;28;19908;-58
2022/07/20 01:33:22;;;;;;;;;;;28.00;92.90;;;;;;5063555;28;19905;-53
2022/07/20 01:35:48;;;;;;;;;;;28.00;92.80;;;;;;5063864;28;20069;-53
2022/07/20 01:38:14;;;;;;;;;;;27.90;92.90;;;;;;5063454;28;19939;-54
2022/07/20 01:40:40;;;;;;;;;;;27.90;92.80;;;;;;5069098;28;19913;-55
2022/07/20 01:43:07;;;;;;;;;;;27.90;92.80;;;;;;5072116;28;19927;-52
2022/07/20 01:45:33;;;;;;;;;;;27.90;92.80;;;;;;5063739;28;19953;-55
2022/07/20 01:47:59;;;;;;;;;;;27.80;92.80;;;;;;5070275;28;19953;-53
2022/07/20 01:50:25;;;;;;;;;;;27.80;92.70;;;;;;5079664;28;20165;-52
2022/07/20 01:52:51;;;;;;;;;;;27.80;92.70;;;;;;5082376;28;19972;-55
2022/07/20 01:55:17;;;;;;;;;;;27.80;92.70;;;;;;5074611;28;20151;-53
2022/07/20 01:57:43;;;;;;;;;;;27.80;92.60;;;;;;5063254;28;20153;-53
2022/07/20 02:00:11;;;;;;;;;;;27.70;92.50;;;;;;5063196;28;19921;-57
2022/07/20 02:02:37;;;;;;;;;;;27.70;92.40;;;;;;5063269;28;19905;-53
2022/07/20 02:05:03;;;;;;;;;;;27.70;92.40;;;;;;5063502;28;20177;-55
2022/07/20 02:07:29;;;;;;;;;;;27.70;92.40;;;;;;5066150;28;19913;-54
2022/07/20 02:09:55;;;;;;;;;;;27.70;92.30;;;;;;5076902;28;19919;-53
2022/07/20 02:12:21;;;;;;;;;;;27.70;92.30;;;;;;5084887;28;19938;-56
2022/07/20 02:14:48;;;;;;;;;;;27.70;92.40;;;;;;5079639;28;19947;-50
2022/07/20 02:17:14;;;;;;;;;;;27.70;92.30;;;;;;5074104;28;19904;-52
2022/07/20 02:19:40;;;;;;;;;;;27.70;92.20;;;;;;5067090;28;19981;-52
2022/07/20 02:22:06;;;;;;;;;;;27.80;92.10;;;;;;5066342;28;20097;-51
2022/07/20 02:24:32;;;;;;;;;;;27.80;92.10;;;;;;5066856;28;19920;-54
2022/07/20 02:26:59;;;;;;;;;;;27.80;92.10;;;;;;5066369;28;19928;-52
2022/07/20 02:29:25;;;;;;;;;;;27.80;92.10;;;;;;5066331;28;19913;-51
2022/07/20 02:31:51;;;;;;;;;;;27.80;92.00;;;;;;5066281;28;19958;-51
2022/07/20 02:34:17;;;;;;;;;;;27.80;92.00;;;;;;5066103;28;20196;-50
2022/07/20 02:36:43;;;;;;;;;;;27.80;92.00;;;;;;5066104;28;19909;-55
2022/07/20 02:39:09;;;;;;;;;;;27.80;91.90;;;;;;5064507;28;20228;-51
2022/07/20 02:41:35;;;;;;;;;;;27.80;91.90;;;;;;5066149;28;19909;-52
2022/07/20 02:44:02;;;;;;;;;;;27.80;92.00;;;;;;5066373;28;20196;-50
2022/07/20 02:46:28;;;;;;;;;;;27.80;92.00;;;;;;5066023;28;19909;-56
2022/07/20 02:48:54;;;;;;;;;;;27.80;91.90;;;;;;5066610;28;19955;-54
2022/07/20 02:51:20;;;;;;;;;;;27.80;91.80;;;;;;5048173;28;19919;-57
2022/07/20 02:53:47;;;;;;;;;;;27.80;91.70;;;;;;5048315;28;19905;-55
2022/07/20 02:56:13;;;;;;;;;;;27.80;91.70;;;;;;5069997;28;19909;-50
2022/07/20 02:58:39;;;;;;;;;;;27.80;91.70;;;;;;5078583;28;19904;-51
2022/07/20 03:01:05;;;;;;;;;;;27.80;91.70;;;;;;5081550;28;19923;-52
2022/07/20 03:03:31;;;;;;;;;;;27.80;91.70;;;;;;5079622;28;20078;-50
2022/07/20 03:05:58;;;;;;;;;;;27.80;91.80;;;;;;5050739;28;19909;-52
2022/07/20 03:08:25;;;;;;;;;;;27.80;91.80;;;;;;5065873;28;19909;-51
2022/07/20 03:10:51;;;;;;;;;;;27.80;91.80;;;;;;5066972;28;19955;-49
2022/07/20 03:13:17;;;;;;;;;;;27.80;91.80;;;;;;5081416;28;19908;-52
2022/07/20 03:15:43;;;;;;;;;;;27.80;91.80;;;;;;5066119;28;19971;-54
2022/07/20 03:18:09;;;;;;;;;;;27.80;91.80;;;;;;5047821;28;19924;-52
2022/07/20 03:20:36;;;;;;;;;;;27.80;91.80;;;;;;5067193;28;20148;-50
2022/07/20 03:23:02;;;;;;;;;;;27.80;91.80;;;;;;5075502;28;19980;-53
2022/07/20 03:25:29;;;;;;;;;;;27.80;91.80;;;;;;5066022;28;19913;-51
2022/07/20 03:27:55;;;;;;;;;;;27.80;91.80;;;;;;5065575;28;20123;-52
2022/07/20 03:30:22;;;;;;;;;;;27.80;91.80;;;;;;5079623;28;19956;-49
2022/07/20 03:32:49;;;;;;;;;;;27.80;91.80;;;;;;5084459;28;19912;-54
2022/07/20 03:35:15;;;;;;;;;;;27.80;91.80;;;;;;5084855;28;19912;-53
2022/07/20 03:37:41;;;;;;;;;;;27.80;91.80;;;;;;5084199;28;19963;-52
2022/07/20 03:40:08;;;;;;;;;;;27.80;91.80;;;;;;5084399;28;19919;-53
2022/07/20 03:42:34;;;;;;;;;;;27.80;91.70;;;;;;5084218;28;19904;-50
2022/07/20 03:45:04;;;;;;;;;;;27.80;91.70;;;;;;5084441;28;19912;-53
2022/07/20 03:47:31;;;;;;;;;;;27.80;91.70;;;;;;5081960;28;20066;-52
2022/07/20 03:50:06;;;;;;;;;;;27.80;91.80;;;;;;5066131;28;20100;-52
2022/07/20 03:52:32;;;;;;;;;;;27.80;91.80;;;;;;5082106;28;19968;-53
2022/07/20 03:54:58;;;;;;;;;;;27.80;91.80;;;;;;5084325;28;19908;-54
2022/07/20 03:57:24;;;;;;;;;;;27.80;91.80;;;;;;5083854;28;19915;-53
2022/07/20 03:59:50;;;;;;;;;;;27.80;91.80;;;;;;5084153;28;19909;-49
2022/07/20 04:02:17;;;;;;;;;;;27.80;91.80;;;;;;5083839;28;19946;-46
2022/07/20 04:04:43;;;;;;;;;;;27.80;91.90;;;;;;5083921;28;19989;-50
2022/07/20 04:07:09;;;;;;;;;;;27.70;91.90;;;;;;5083762;28;19958;-50
2022/07/20 04:09:44;;;;;;;;;;;27.80;91.90;;;;;;5083879;28;19912;-56
2022/07/20 04:12:15;;;;;;;;;;;27.70;91.90;;;;;;5081655;28;20144;-57
2022/07/20 04:14:44;;;;;;;;;;;27.70;91.90;;;;;;5083425;28;19920;-55
2022/07/20 04:17:11;;;;;;;;;;;27.70;91.90;;;;;;5065820;28;19904;-57
2022/07/20 04:19:37;;;;;;;;;;;27.70;91.90;;;;;;5084303;28;20086;-48
2022/07/20 04:22:04;;;;;;;;;;;27.70;92.00;;;;;;5083682;28;19904;-53
2022/07/20 04:24:30;;;;;;;;;;;27.70;92.10;;;;;;5083764;28;19921;-48
2022/07/20 04:26:56;;;;;;;;;;;27.70;92.10;;;;;;5065978;28;19915;-53
2022/07/20 04:29:22;;;;;;;;;;;27.70;92.10;;;;;;5083747;28;20199;-54
2022/07/20 04:31:49;;;;;;;;;;;27.70;92.10;;;;;;5084106;28;19912;-49
2022/07/20 04:34:16;;;;;;;;;;;27.70;92.10;;;;;;5084065;28;19912;-48
2022/07/20 04:36:42;;;;;;;;;;;27.70;92.10;;;;;;5066719;28;19912;-51
2022/07/20 04:39:08;;;;;;;;;;;27.70;92.10;;;;;;5084729;28;19955;-52
2022/07/20 04:41:34;;;;;;;;;;;27.70;92.20;;;;;;5084538;28;19905;-52
2022/07/20 04:44:00;;;;;;;;;;;27.60;92.10;;;;;;5084941;28;19912;-53
2022/07/20 04:46:28;;;;;;;;;;;27.70;92.20;;;;;;5083861;28;19908;-49
2022/07/20 04:48:54;;;;;;;;;;;27.60;92.20;;;;;;5084651;28;19913;-48
2022/07/20 04:51:20;;;;;;;;;;;27.60;92.20;;;;;;5084357;28;20192;-55
2022/07/20 04:53:47;;;;;;;;;;;27.60;92.30;;;;;;5084379;28;19967;-51
2022/07/20 04:56:14;;;;;;;;;;;27.60;92.20;;;;;;5084288;28;19904;-51
2022/07/20 04:58:40;;;;;;;;;;;27.60;92.20;;;;;;5084230;28;19909;-51
2022/07/20 05:01:06;;;;;;;;;;;27.60;92.20;;;;;;5084031;28;19916;-59
2022/07/20 05:03:33;;;;;;;;;;;27.60;92.20;;;;;;5084128;28;19939;-50
2022/07/20 05:06:01;;;;;;;;;;;27.60;92.20;;;;;;5083580;28;20811;-51
2022/07/20 05:08:27;;;;;;;;;;;27.60;92.30;;;;;;5084116;28;19905;-54
2022/07/20 05:10:53;;;;;;;;;;;27.60;92.30;;;;;;5084115;28;19920;-49
2022/07/20 05:13:19;;;;;;;;;;;27.60;92.30;;;;;;5084049;28;20100;-50
2022/07/20 05:15:46;;;;;;;;;;;27.50;92.30;;;;;;5084651;28;19916;-54
2022/07/20 05:18:12;;;;;;;;;;;27.50;92.30;;;;;;5084272;28;19915;-53
2022/07/20 05:20:38;;;;;;;;;;;27.60;92.40;;;;;;5084643;28;19909;-49
2022/07/20 05:23:04;;;;;;;;;;;27.50;92.40;;;;;;5084288;28;19908;-49
2022/07/20 05:25:30;;;;;;;;;;;27.60;92.40;;;;;;5084836;28;19973;-50
2022/07/20 05:27:56;;;;;;;;;;;27.50;92.40;;;;;;5084242;28;19943;-49
2022/07/20 05:30:22;;;;;;;;;;;27.50;92.50;;;;;;5084461;28;19951;-54
2022/07/20 05:32:48;;;;;;;;;;;27.50;92.70;;;;;;5084058;28;19909;-51
2022/07/20 05:35:15;;;;;;;;;;;27.50;92.60;;;;;;5084763;28;19908;-51
2022/07/20 05:37:41;;;;;;;;;;;27.50;92.60;;;;;;5083959;28;19908;-50
2022/07/20 05:40:07;;;;;;;;;;;27.50;92.60;;;;;;5084493;28;19912;-50
2022/07/20 05:42:33;;;;;;;;;;;27.50;92.70;;;;;;5084266;28;20204;-52
2022/07/20 05:44:59;;;;;;;;;;;27.50;92.70;;;;;;5087069;28;19908;-50
2022/07/20 05:47:25;;;;;;;;;;;27.40;92.70;;;;;;5087631;28;20139;-48
2022/07/20 05:49:52;;;;;;;;;;;27.50;92.70;;;;;;5087662;28;19908;-51
2022/07/20 05:52:18;;;;;;;;;;;27.50;92.80;;;;;;5087500;28;19913;-48
2022/07/20 05:54:44;;;;;;;;;;;27.50;92.80;;;;;;5088026;28;19983;-51
2022/07/20 05:57:10;;;;;;;;;;;27.50;92.80;;;;;;5087615;28;19909;-53
2022/07/20 05:59:36;;;;;;;;;;;27.50;92.80;;;;;;5087717;28;20088;-52
2022/07/20 06:02:03;;;;;;;;;;;27.40;92.70;;;;;;5086938;28;20204;-52
2022/07/20 06:04:30;;;;;;;;;;;27.40;92.60;;;;;;5087676;28;19916;-54
2022/07/20 06:06:56;;;;;;;;;;;27.40;92.60;;;;;;5069568;28;19908;-50
2022/07/20 06:09:22;;;;;;;;;;;27.40;92.60;;;;;;5087507;28;19916;-52
2022/07/20 06:11:48;;;;;;;;;;;27.40;92.60;;;;;;5087286;28;19921;-46
2022/07/20 06:14:14;;;;;;;;;;;27.40;92.60;;;;;;5087625;28;20193;-47
2022/07/20 06:16:40;;;;;;;;;;;27.40;92.50;;;;;;5087666;28;20108;-51
2022/07/20 06:19:06;;;;;;;;;;;27.40;92.50;;;;;;5087155;28;19909;-53
2022/07/20 06:21:32;;;;;;;;;;;27.40;92.50;;;;;;5087527;28;19944;-49
2022/07/20 06:23:59;;;;;;;;;;;27.30;92.50;;;;;;5087320;28;19954;-48
2022/07/20 06:26:25;;;;;;;;;;;27.40;92.50;;;;;;5087673;28;19915;-50
2022/07/20 06:28:51;;;;;;;;;;;27.30;92.50;;;;;;5086983;28;19908;-47
2022/07/20 06:31:17;;;;;;;;;;;27.30;92.50;;;;;;5086916;28;19912;-51
2022/07/20 06:33:43;;;;;;;;;;;27.30;92.40;;;;;;5087156;28;19911;-55
2022/07/20 06:36:09;;;;;;;;;;;27.30;92.50;;;;;;5087145;28;19944;-53
2022/07/20 06:38:35;;;;;;;;;;;27.30;92.50;;;;;;5086914;28;20101;-51
2022/07/20 06:41:01;;;;;;;;;;;27.30;92.50;;;;;;5086961;28;19908;-55
2022/07/20 06:43:28;;;;;;;;;;;27.30;92.50;;;;;;5087024;28;19905;-51
2022/07/20 06:45:54;;;;;;;;;;;27.30;92.50;;;;;;5086801;28;20201;-52
2022/07/20 06:48:20;;;;;;;;;;;27.30;92.50;;;;;;5086947;28;19963;-53
2022/07/20 06:50:48;;;;;;;;;;;27.30;92.50;;;;;;5087026;28;19920;-53
2022/07/20 06:53:15;;;;;;;;;;;27.30;92.50;;;;;;5086739;28;20155;-50
2022/07/20 06:55:41;;;;;;;;;;;27.30;92.60;;;;;;5086264;28;19969;-48
2022/07/20 06:58:07;;;;;;;;;;;27.30;92.60;;;;;;5087211;28;19943;-51
2022/07/20 07:00:33;;;;;;;;;;;27.30;92.60;;;;;;5086608;28;20014;-53
2022/07/20 07:02:59;;;;;;;;;;;27.30;92.50;;;;;;5086510;28;20078;-55
2022/07/20 07:05:25;;;;;;;;;;;27.30;92.50;;;;;;5087335;28;19908;-54
2022/07/20 07:07:52;;;;;;;;;;;27.30;92.50;;;;;;5086987;28;20101;-52
2022/07/20 07:10:18;;;;;;;;;;;27.30;92.50;;;;;;5086648;28;19916;-52
2022/07/20 07:12:44;;;;;;;;;;;27.30;92.40;;;;;;5086279;28;19908;-54
2022/07/20 07:15:10;;;;;;;;;;;27.20;92.40;;;;;;5086636;28;20185;-53
2022/07/20 07:17:36;;;;;;;;;;;27.30;92.40;;;;;;5086092;28;20112;-49
2022/07/20 07:20:03;;;;;;;;;;;27.30;92.40;;;;;;5086678;28;19915;-56
2022/07/20 07:22:30;;;;;;;;;;;27.30;92.40;;;;;;5085997;28;19916;-51
2022/07/20 07:24:56;;;;;;;;;;;27.20;92.40;;;;;;5086311;28;19908;-52
2022/07/20 07:27:23;;;;;;;;;;;27.20;92.50;;;;;;5085824;28;19931;-51
2022/07/20 07:29:49;;;;;;;;;;;27.20;92.50;;;;;;5086151;28;19916;-53
2022/07/20 07:32:15;;;;;;;;;;;27.20;92.60;;;;;;5085791;28;19935;-52
2022/07/20 07:34:41;;;;;;;;;;;27.20;92.60;;;;;;5067774;28;20085;-51
2022/07/20 07:37:07;;;;;;;;;;;27.20;92.70;;;;;;5085879;28;19979;-51
2022/07/20 07:39:33;;;;;;;;;;;27.20;92.70;;;;;;5085830;28;20080;-52
2022/07/20 07:41:59;;;;;;;;;;;27.20;92.80;;;;;;5085512;28;20104;-51
2022/07/20 07:44:26;;;;;;;;;;;27.20;92.80;;;;;;5085733;28;19908;-52
2022/07/20 07:46:52;;;;;;;;;;;27.20;93.00;;;;;;5085415;28;19908;-51
2022/07/20 07:49:18;;;;;;;;;;;27.20;93.00;;;;;;5085359;28;20180;-49
2022/07/20 07:51:44;;;;;;;;;;;27.20;93.00;;;;;;5085236;28;19952;-53
2022/07/20 07:54:10;;;;;;;;;;;27.20;93.10;;;;;;5085652;28;19916;-50
2022/07/20 07:56:37;;;;;;;;;;;27.20;93.20;;;;;;5067888;28;20096;-49
2022/07/20 07:59:03;;;;;;;;;;;27.20;93.30;;;;;;5085355;28;20177;-51
2022/07/20 08:01:30;;;;;;;;;;;27.20;93.30;;;;;;5085234;28;19920;-56
2022/07/20 08:03:56;;;;;;;;;;;27.10;93.40;;;;;;5084861;28;19954;-47
2022/07/20 08:06:22;;;;;;;;;;;27.20;93.40;;;;;;5085139;28;19908;-54
2022/07/20 08:08:48;;;;;;;;;;;27.20;93.50;;;;;;5084466;28;19927;-52
2022/07/20 08:11:15;;;;;;;;;;;27.20;93.50;;;;;;5085059;28;19912;-58
2022/07/20 08:13:41;;;;;;;;;;;27.10;93.50;;;;;;5084796;28;19904;-52
2022/07/20 08:16:07;;;;;;;;;;;27.10;93.50;;;;;;5067034;28;19923;-50
2022/07/20 08:18:34;;;;;;;;;;;27.10;93.60;;;;;;5084965;28;20243;-49
2022/07/20 08:21:00;;;;;;;;;;;27.10;93.60;;;;;;5084674;28;20097;-52
2022/07/20 08:23:26;;;;;;;;;;;27.10;93.60;;;;;;5084861;28;19905;-53
2022/07/20 08:25:52;;;;;;;;;;;27.10;93.70;;;;;;5085155;28;19908;-54
2022/07/20 08:28:20;;;;;;;;;;;27.10;93.70;;;;;;5084839;28;19940;-54
2022/07/20 08:30:47;;;;;;;;;;;27.10;93.80;;;;;;5084990;28;19912;-52
2022/07/20 08:33:13;;;;;;;;;;;27.10;93.80;;;;;;5084632;28;20086;-52
2022/07/20 08:35:40;;;;;;;;;;;27.10;93.80;;;;;;5085004;28;19909;-50
2022/07/20 08:38:06;;;;;;;;;;;27.10;93.70;;;;;;5084711;28;20143;-51
2022/07/20 08:40:33;;;;;;;;;;;27.10;93.80;;;;;;5084932;28;20077;-52
2022/07/20 08:42:59;;;;;;;;;;;27.10;93.80;;;;;;5084919;28;19908;-52
2022/07/20 08:45:27;;;;;;;;;;;27.00;93.70;;;;;;5084865;28;19975;-50
2022/07/20 08:47:53;;;;;;;;;;;27.00;93.70;;;;;;5084339;28;20086;-55
2022/07/20 08:50:24;;;;;;;;;;;27.00;93.80;;;;;;5084782;28;19908;-55
2022/07/20 08:52:50;;;;;;;;;;;27.00;93.80;;;;;;5084391;28;19920;-49
2022/07/20 08:55:16;;;;;;;;;;;27.00;93.80;;;;;;5084933;28;19927;-47
2022/07/20 08:57:42;;;;;;;;;;;27.00;93.90;;;;;;5084559;28;19948;-49
2022/07/20 09:00:09;;;;;;;;;;;27.00;93.90;;;;;;5084368;28;19948;-50
2022/07/20 09:03:01;;;;;;;;;;;27.00;93.90;;;;;;5084242;28;19909;-48
2022/07/20 09:05:28;;;;;;;;;;;27.00;93.90;;;;;;5080506;28;19936;-50
2022/07/20 09:07:55;;;;;;;;;;;27.00;93.90;;;;;;5084455;28;19908;-53
2022/07/20 09:10:21;;;;;;;;;;;27.00;93.90;;;;;;5084517;28;19908;-49
2022/07/20 09:12:59;;;;;;;;;;;26.90;93.90;;;;;;5082769;28;19915;-49
2022/07/20 09:15:38;;;;;;;;;;;27.00;94.00;;;;;;5083467;28;19913;-51
2022/07/20 09:18:13;;;;;;;;;;;26.90;94.00;;;;;;5084064;28;19912;-52
2022/07/20 09:20:41;;;;;;;;;;;26.90;94.00;;;;;;5088502;28;19940;-51
2022/07/20 09:23:09;;;;;;;;;;;27.00;94.10;;;;;;5088172;28;19931;-47
2022/07/20 09:25:35;;;;;;;;;;;26.90;94.10;;;;;;5088859;28;19909;-58
2022/07/20 09:28:02;;;;;;;;;;;26.90;94.00;;;;;;5088296;28;19908;-52
2022/07/20 09:30:28;;;;;;;;;;;26.90;94.00;;;;;;5088351;28;19990;-54
2022/07/20 09:33:02;;;;;;;;;;;26.90;94.00;;;;;;5088161;28;19913;-49
2022/07/20 09:35:30;;;;;;;;;;;26.90;93.90;;;;;;5088477;28;20089;-54
2022/07/20 09:37:57;;;;;;;;;;;26.90;94.00;;;;;;5088167;28;19908;-51
2022/07/20 09:40:24;;;;;;;;;;;26.90;94.00;;;;;;5088900;28;19932;-52
2022/07/20 09:42:50;;;;;;;;;;;26.90;94.00;;;;;;5087986;28;19916;-51
2022/07/20 09:45:21;;;;;;;;;;;26.90;94.00;;;;;;5088193;28;19909;-51
2022/07/20 09:48:02;;;;;;;;;;;26.80;94.00;;;;;;5087911;28;20007;-53
2022/07/20 09:50:29;;;;;;;;;;;26.80;94.00;;;;;;5087920;28;20123;-55
2022/07/20 09:52:56;;;;;;;;;;;26.80;94.00;;;;;;5087866;28;20215;-50
2022/07/20 09:55:22;;;;;;;;;;;26.80;94.10;;;;;;5088083;28;20203;-57
2022/07/20 09:57:52;;;;;;;;;;;26.80;94.10;;;;;;5087480;28;19982;-52
2022/07/20 10:00:19;;;;;;;;;;;26.80;94.30;;;;;;5087762;28;20054;-51
2022/07/20 10:02:48;;;;;;;;;;;26.80;94.10;;;;;;5087579;28;19913;-54
2022/07/20 10:05:17;;;;;;;;;;;26.80;94.10;;;;;;5088133;28;19939;-50
2022/07/20 10:07:44;;;;;;;;;;;26.80;94.20;;;;;;5087531;28;19909;-55
2022/07/20 10:10:10;;;;;;;;;;;26.80;94.20;;;;;;5087811;28;19909;-56
2022/07/20 10:12:37;;;;;;;;;;;26.80;94.20;;;;;;5087172;28;19968;-51
2022/07/20 10:15:05;;;;;;;;;;;26.80;94.30;;;;;;5087714;28;19916;-48
2022/07/20 10:17:33;;;;;;;;;;;26.80;94.30;;;;;;5087250;28;19908;-54
2022/07/20 10:19:59;;;;;;;;;;;26.80;94.30;;;;;;5087420;28;19936;-49
2022/07/20 10:22:25;;;;;;;;;;;26.80;94.30;;;;;;5087499;28;19932;-55
2022/07/20 10:25:10;;;;;;;;;;;26.80;94.40;;;;;;5087595;28;19909;-52
2022/07/20 10:27:36;;;;;;;;;;;26.70;94.30;;;;;;5087185;28;19909;-53
2022/07/20 10:30:19;;;;;;;;;;;26.70;94.30;;;;;;5086915;28;19936;-51
2022/07/20 10:32:56;;;;;;;;;;;26.70;94.30;;;;;;5086554;28;19912;-52
2022/07/20 10:35:29;;;;;;;;;;;26.70;94.40;;;;;;5087344;28;19909;-54
2022/07/20 10:37:56;;;;;;;;;;;26.70;94.40;;;;;;5086990;28;20103;-55
2022/07/20 10:40:23;;;;;;;;;;;26.70;94.40;;;;;;5087467;28;19983;-62
2022/07/20 10:43:10;;;;;;;;;;;26.70;94.40;;;;;;5086993;28;20189;-49
2022/07/20 10:45:36;;;;;;;;;;;26.70;94.50;;;;;;5084629;28;19916;-52
2022/07/20 10:48:23;;;;;;;;;;;26.70;94.50;;;;;;5086840;28;19944;-52
2022/07/20 10:50:53;;;;;;;;;;;26.70;94.50;;;;;;5086905;28;19916;-59
2022/07/20 10:53:23;;;;;;;;;;;26.70;94.50;;;;;;5086750;28;20246;-50
2022/07/20 10:56:00;;;;;;;;;;;26.70;94.50;;;;;;5086981;28;19943;-53
2022/07/20 10:58:27;;;;;;;;;;;26.70;94.50;;;;;;5085667;28;20148;-52
2022/07/20 11:01:07;;;;;;;;;;;26.70;94.50;;;;;;5083504;28;19951;-52
2022/07/20 11:03:37;;;;;;;;;;;26.70;94.60;;;;;;5084471;28;19909;-53
2022/07/20 11:06:03;;;;;;;;;;;26.70;94.60;;;;;;5086300;28;19940;-53
2022/07/20 11:08:29;;;;;;;;;;;26.70;94.60;;;;;;5084403;28;19915;-49
2022/07/20 11:10:56;;;;;;;;;;;26.70;94.70;;;;;;5086467;28;19939;-51
2022/07/20 11:13:22;;;;;;;;;;;26.70;94.70;;;;;;5086109;28;19910;-50
2022/07/20 11:15:49;;;;;;;;;;;26.70;94.70;;;;;;5086613;28;19908;-45
2022/07/20 11:18:17;;;;;;;;;;;26.70;94.70;;;;;;5086577;28;19919;-53
2022/07/20 11:20:46;;;;;;;;;;;26.70;94.70;;;;;;5086619;28;19911;-50
2022/07/20 11:23:13;;;;;;;;;;;26.70;94.60;;;;;;5085044;28;20201;-50
2022/07/20 11:25:45;;;;;;;;;;;26.70;94.70;;;;;;5086553;28;19940;-52
2022/07/20 11:28:12;;;;;;;;;;;26.70;94.70;;;;;;5085915;28;20082;-48
2022/07/20 11:30:38;;;;;;;;;;;26.70;94.70;;;;;;5086149;28;19955;-52
2022/07/20 11:33:04;;;;;;;;;;;26.60;94.70;;;;;;5086194;28;19951;-59
2022/07/20 11:35:31;;;;;;;;;;;26.70;94.80;;;;;;5085707;28;19909;-58
2022/07/20 11:37:57;;;;;;;;;;;26.70;94.80;;;;;;5085604;28;19908;-53
2022/07/20 11:40:23;;;;;;;;;;;26.70;94.90;;;;;;5086006;28;19909;-53
2022/07/20 11:43:05;;;;;;;;;;;26.70;94.90;;;;;;5085517;28;19916;-52
2022/07/20 11:45:32;;;;;;;;;;;26.60;94.90;;;;;;5085966;28;19908;-53
2022/07/20 11:47:58;;;;;;;;;;;26.70;95.00;;;;;;5085574;28;19951;-50
2022/07/20 11:50:30;;;;;;;;;;;26.70;95.00;;;;;;5085680;28;19951;-51
2022/07/20 11:52:56;;;;;;;;;;;26.70;95.00;;;;;;5085282;28;19909;-47
2022/07/20 11:55:37;;;;;;;;;;;26.70;95.00;;;;;;5086058;28;19935;-54
2022/07/20 11:58:04;;;;;;;;;;;26.70;95.00;;;;;;5085716;28;19915;-50
2022/07/20 12:00:30;;;;;;;;;;;26.70;95.00;;;;;;5084590;28;20154;-51
2022/07/20 12:02:57;;;;;;;;;;;26.70;95.00;;;;;;5085206;28;19909;-51
2022/07/20 12:05:23;;;;;;;;;;;26.70;94.90;;;;;;5085613;28;20097;-52
2022/07/20 12:08:07;;;;;;;;;;;26.70;94.90;;;;;;5085254;28;19908;-55
2022/07/20 12:10:34;;;;;;;;;;;26.70;94.90;;;;;;5085368;28;19912;-54
2022/07/20 12:13:01;;;;;;;;;;;26.70;94.90;;;;;;5085085;28;19944;-55
2022/07/20 12:15:28;;;;;;;;;;;26.80;94.90;;;;;;5085550;28;19909;-53
2022/07/20 12:17:54;;;;;;;;;;;26.70;94.90;;;;;;5085124;28;19909;-55
2022/07/20 12:20:21;;;;;;;;;;;26.80;94.80;;;;;;5084898;28;20193;-56
2022/07/20 12:22:51;;;;;;;;;;;26.80;94.80;;;;;;5084790;28;20209;-56
2022/07/20 12:25:18;;;;;;;;;;;26.80;94.80;;;;;;5085135;28;19908;-52
2022/07/20 12:27:44;;;;;;;;;;;26.80;94.90;;;;;;5084126;28;19935;-58
2022/07/20 12:30:28;;;;;;;;;;;26.80;94.80;;;;;;5084994;28;19936;-54
2022/07/20 12:33:08;;;;;;;;;;;26.80;94.80;;;;;;5084788;28;20215;-49
2022/07/20 12:35:35;;;;;;;;;;;26.80;94.80;;;;;;5084005;28;20239;-53
2022/07/20 12:38:01;;;;;;;;;;;26.80;94.80;;;;;;5084442;28;19972;-51
2022/07/20 12:40:31;;;;;;;;;;;26.80;94.80;;;;;;5084918;28;19984;-52
2022/07/20 12:42:57;;;;;;;;;;;26.80;94.80;;;;;;5084494;28;19915;-53
2022/07/20 12:45:23;;;;;;;;;;;26.80;94.80;;;;;;5085507;28;19929;-56
2022/07/20 12:47:50;;;;;;;;;;;26.80;94.90;;;;;;5084719;28;19968;-55
2022/07/20 12:50:16;;;;;;;;;;;26.80;95.10;;;;;;5084606;28;19915;-54
2022/07/20 12:52:42;;;;;;;;;;;26.80;95.30;;;;;;5084506;28;19908;-56
2022/07/20 12:55:08;;;;;;;;;;;26.90;95.40;;;;;;5084175;28;19909;-61
2022/07/20 12:57:34;;;;;;;;;;;26.80;95.30;;;;;;5084307;28;19954;-48
2022/07/20 13:00:01;;;;;;;;;;;26.80;95.20;;;;;;5084265;28;20158;-55
2022/07/20 13:02:27;;;;;;;;;;;26.80;95.10;;;;;;5084354;28;19936;-51
2022/07/20 13:04:53;;;;;;;;;;;26.80;94.90;;;;;;5084612;28;19909;-48
2022/07/20 13:07:20;;;;;;;;;;;26.80;94.80;;;;;;5084433;28;19908;-54
2022/07/20 13:09:46;;;;;;;;;;;26.80;94.90;;;;;;5084574;28;19916;-47
2022/07/20 13:12:12;;;;;;;;;;;26.80;95.00;;;;;;5083401;28;19924;-48
2022/07/20 13:14:38;;;;;;;;;;;26.80;95.10;;;;;;5084188;28;20121;-48
2022/07/20 13:17:05;;;;;;;;;;;26.80;95.30;;;;;;5084175;28;19916;-53
2022/07/20 13:19:31;;;;;;;;;;;26.80;95.40;;;;;;5084294;28;19983;-51
2022/07/20 13:21:57;;;;;;;;;;;26.80;95.50;;;;;;5083112;28;19909;-53
2022/07/20 13:24:23;;;;;;;;;;;26.80;95.40;;;;;;5083588;28;19908;-48
2022/07/20 13:26:49;;;;;;;;;;;26.90;95.50;;;;;;5080469;28;19913;-57
2022/07/20 13:29:15;;;;;;;;;;;26.90;95.50;;;;;;5081908;28;19931;-52
2022/07/20 13:31:43;;;;;;;;;;;26.90;95.50;;;;;;5080717;28;19916;-50
2022/07/20 13:34:09;;;;;;;;;;;26.90;95.50;;;;;;5083433;28;19908;-53
2022/07/20 13:36:35;;;;;;;;;;;26.90;95.40;;;;;;5081827;28;20220;-50
2022/07/20 13:39:01;;;;;;;;;;;26.90;95.40;;;;;;5080912;28;19909;-53
2022/07/20 13:41:28;;;;;;;;;;;26.90;95.40;;;;;;5083345;28;20131;-54
2022/07/20 13:43:54;;;;;;;;;;;26.90;95.40;;;;;;5080540;28;19912;-57
2022/07/20 13:46:20;;;;;;;;;;;26.90;95.40;;;;;;5078151;28;19912;-56
2022/07/20 13:48:46;;;;;;;;;;;26.90;95.40;;;;;;5083962;28;19916;-50
2022/07/20 13:51:13;;;;;;;;;;;26.90;95.40;;;;;;5082878;28;19923;-56
2022/07/20 13:53:39;;;;;;;;;;;26.80;95.40;;;;;;5076987;28;19908;-52
2022/07/20 13:56:07;;;;;;;;;;;26.80;95.30;;;;;;5068322;28;19919;-54
2022/07/20 13:58:34;;;;;;;;;;;26.80;95.40;;;;;;5053568;28;19904;-54
2022/07/20 14:01:00;;;;;;;;;;;26.80;95.50;;;;;;5072921;28;19921;-51
2022/07/20 14:03:32;;;;;;;;;;;26.80;95.60;;;;;;5077125;28;19908;-51
2022/07/20 14:05:58;;;;;;;;;;;26.80;95.70;;;;;;5081384;28;19920;-52
2022/07/20 14:08:24;;;;;;;;;;;26.80;95.90;;;;;;5076115;28;19905;-55
2022/07/20 14:10:51;;;;;;;;;;;26.80;95.70;;;;;;5067182;28;19913;-52
2022/07/20 14:13:18;;;;;;;;;;;26.80;95.70;;;;;;5068974;28;19978;-52
2022/07/20 14:15:44;;;;;;;;;;;26.80;95.70;;;;;;5087093;28;19955;-53
2022/07/20 14:18:11;;;;;;;;;;;26.80;95.70;;;;;;5068930;28;19915;-52